createdAt,value
2024-05-09T00:03:02.945Z,99445.88
2024-05-09T00:06:05.944Z,99450.84
2024-05-09T00:09:11.190Z,99449.41
2024-05-09T00:12:13.896Z,99435.94
2024-05-09T00:15:16.560Z,99439.41
2024-05-09T00:18:19.068Z,99436.13
2024-05-09T00:21:21.624Z,99428.41
2024-05-09T00:24:28.651Z,99448.06
2024-05-09T00:27:31.036Z,99440.78
2024-05-09T00:30:36.135Z,99435.56
2024-05-09T00:33:39.806Z,99430.78
2024-05-09T00:36:42.250Z,99429.22
2024-05-09T00:39:47.496Z,99435.44
2024-05-09T00:42:49.988Z,99430.09
2024-05-09T00:45:53.740Z,99427.44
2024-05-09T00:48:56.503Z,99428.97
2024-05-09T00:51:59.786Z,99432.41
2024-05-09T00:55:08.235Z,99419.41
2024-05-09T00:58:13.097Z,99434.22
2024-05-09T01:01:20.789Z,99426.31
2024-05-09T01:04:23.296Z,99421.22
2024-05-09T01:07:26.465Z,99432.19
2024-05-09T01:10:34.899Z,99426.38
2024-05-09T01:13:40.316Z,99427.09
2024-05-09T01:16:42.929Z,99423.69
2024-05-09T01:19:45.945Z,99428.97
2024-05-09T01:22:48.487Z,99423.88
2024-05-09T01:25:53.534Z,99424.28
2024-05-09T01:28:56.023Z,99426.06
2024-05-09T01:31:59.866Z,99424.91
2024-05-09T01:35:02.496Z,99423.97
2024-05-09T01:38:05.725Z,99422.19
2024-05-09T01:41:10.991Z,99420.00
2024-05-09T01:44:13.611Z,99415.78
2024-05-09T01:47:16.420Z,99422.81
2024-05-09T01:50:25.311Z,99427.31
2024-05-09T01:53:35.952Z,99426.41
2024-05-09T01:56:41.079Z,99429.00
2024-05-09T01:59:43.507Z,99414.38
2024-05-09T02:02:46.574Z,99430.19
2024-05-09T02:05:50.174Z,99419.75
2024-05-09T02:08:52.813Z,99422.78
2024-05-09T02:11:57.815Z,99430.66
2024-05-09T02:15:00.352Z,99428.31
2024-05-09T02:18:02.872Z,99437.41
2024-05-09T02:21:05.929Z,99422.41
2024-05-09T02:24:08.259Z,99405.66
2024-05-09T02:27:13.305Z,99425.16
2024-05-09T02:30:22.847Z,99416.31
2024-05-09T02:33:34.111Z,99416.63
2024-05-09T02:36:36.491Z,99427.94
2024-05-09T02:39:38.919Z,99413.91
2024-05-09T02:42:43.891Z,99422.63
2024-05-09T02:45:46.405Z,99412.16
2024-05-09T02:48:48.839Z,99414.38
2024-05-09T02:51:51.351Z,99417.25
2024-05-09T02:54:53.926Z,99413.56
2024-05-09T02:57:58.970Z,99418.16
2024-05-09T03:01:02.007Z,99418.31
2024-05-09T03:04:04.718Z,99418.78
2024-05-09T03:07:08.560Z,99417.59
2024-05-09T03:10:18.336Z,99428.84
2024-05-09T03:13:27.591Z,99424.44
2024-05-09T03:16:30.074Z,99420.56
2024-05-09T03:19:32.552Z,99420.09
2024-05-09T03:22:35.073Z,99411.53
2024-05-09T03:25:37.661Z,99410.72
2024-05-09T03:28:42.817Z,99412.47
2024-05-09T03:31:45.331Z,99408.00
2024-05-09T03:34:48.046Z,99410.78
2024-05-09T03:37:50.432Z,99423.84
2024-05-09T03:40:53.188Z,99419.09
2024-05-09T03:43:58.536Z,99420.56
2024-05-09T03:47:01.089Z,99421.34
2024-05-09T03:50:05.620Z,99410.78
2024-05-09T03:53:11.191Z,99403.06
2024-05-09T03:56:13.888Z,99416.31
2024-05-09T03:59:19.298Z,99415.09
2024-05-09T04:02:22.026Z,99411.22
2024-05-09T04:05:25.669Z,99412.66
2024-05-09T04:08:28.776Z,99415.28
2024-05-09T04:11:31.423Z,99407.53
2024-05-09T04:14:36.616Z,99424.34
2024-05-09T04:17:39.312Z,99413.13
2024-05-09T04:20:41.987Z,99417.97
2024-05-09T04:23:44.540Z,99429.31
2024-05-09T04:26:46.956Z,99428.50
2024-05-09T04:29:51.956Z,99419.13
2024-05-09T04:32:54.732Z,99424.25
2024-05-09T04:35:57.172Z,99430.97
2024-05-09T04:38:59.600Z,99420.97
2024-05-09T04:42:01.987Z,99424.31
2024-05-09T04:45:07.796Z,99417.66
2024-05-09T04:48:10.974Z,99417.28
2024-05-09T04:51:13.716Z,99426.41
2024-05-09T04:54:26.324Z,99421.72
2024-05-09T04:57:36.423Z,99418.63
2024-05-09T05:00:41.904Z,99413.53
2024-05-09T05:03:44.793Z,99411.22
2024-05-09T05:06:47.288Z,99423.13
2024-05-09T05:09:49.772Z,99424.53
2024-05-09T05:13:11.305Z,99416.44
2024-05-09T05:16:17.302Z,99425.09
2024-05-09T05:19:19.868Z,99424.81
2024-05-09T05:22:22.596Z,99420.28
2024-05-09T05:25:26.867Z,99423.34
2024-05-09T05:28:29.382Z,99417.78
2024-05-09T05:31:34.485Z,99426.50
2024-05-09T05:34:36.910Z,99429.75
2024-05-09T05:37:39.351Z,99429.41
2024-05-09T05:40:42.123Z,99437.09
2024-05-09T05:43:44.564Z,99429.72
2024-05-09T05:46:50.885Z,99433.78
2024-05-09T05:49:55.391Z,99436.94
2024-05-09T05:52:57.882Z,99436.38
2024-05-09T05:56:00.475Z,99435.97
2024-05-09T05:59:02.946Z,99441.25
2024-05-09T06:02:09.646Z,99447.13
2024-05-09T06:05:12.333Z,99450.88
2024-05-09T06:08:15.263Z,99445.78
2024-05-09T06:11:17.971Z,99452.09
2024-05-09T06:14:20.770Z,99441.84
2024-05-09T06:17:26.168Z,99453.69
2024-05-09T06:20:35.577Z,99445.31
2024-05-09T06:23:46.177Z,99444.50
2024-05-09T06:26:48.565Z,99444.09
2024-05-09T06:29:51.090Z,99446.75
2024-05-09T06:32:56.289Z,99445.13
2024-05-09T06:35:59.649Z,99456.97
2024-05-09T06:39:02.246Z,99452.03
2024-05-09T06:42:05.030Z,99444.88
2024-05-09T06:45:07.794Z,99438.72
2024-05-09T06:48:15.775Z,99452.41
2024-05-09T06:51:21.754Z,99435.78
2024-05-09T06:54:24.322Z,99446.28
2024-05-09T06:57:30.029Z,99446.78
2024-05-09T07:00:38.776Z,99446.03
2024-05-09T07:03:46.446Z,99457.69
2024-05-09T07:06:48.867Z,99457.03
2024-05-09T07:09:51.383Z,99459.59
2024-05-09T07:12:53.851Z,99462.72
2024-05-09T07:15:56.439Z,99455.53
2024-05-09T07:19:01.795Z,99468.25
2024-05-09T07:22:04.750Z,99460.84
2024-05-09T07:25:07.507Z,99464.22
2024-05-09T07:28:11.828Z,99470.59
2024-05-09T07:31:15.168Z,99468.59
2024-05-09T07:34:20.692Z,99470.88
2024-05-09T07:37:23.386Z,99464.38
2024-05-09T07:40:33.102Z,99464.03
2024-05-09T07:43:38.792Z,99472.03
2024-05-09T07:51:32.799Z,99467.69
2024-05-09T07:53:37.597Z,99473.69
2024-05-09T07:56:37.088Z,99470.56
2024-05-09T07:59:39.587Z,99457.72
2024-05-09T08:02:42.213Z,99454.16
2024-05-09T08:05:47.260Z,99456.22
2024-05-09T08:08:49.790Z,99455.50
2024-05-09T08:11:52.896Z,99448.16
2024-05-09T08:14:56.447Z,99447.47
2024-05-09T08:17:59.555Z,99451.63
2024-05-09T08:21:05.112Z,99447.06
2024-05-09T08:24:07.562Z,99452.25
2024-05-09T08:27:10.119Z,99455.97
2024-05-09T08:30:21.346Z,99452.44
2024-05-09T08:33:27.784Z,99451.00
2024-05-09T08:36:32.933Z,99453.72
2024-05-09T08:39:35.362Z,99455.03
2024-05-09T08:42:45.452Z,99453.00
2024-05-09T08:45:50.234Z,99452.97
2024-05-09T08:48:55.934Z,99456.72
2024-05-09T08:52:01.238Z,99455.06
2024-05-09T08:55:04.154Z,99454.09
2024-05-09T08:58:08.033Z,99465.53
2024-05-09T09:01:13.195Z,99447.16
2024-05-09T09:04:17.614Z,99451.69
2024-05-09T09:07:23.214Z,99448.56
2024-05-09T09:10:31.982Z,99446.94
2024-05-09T09:13:35.675Z,99447.13
2024-05-09T09:16:41.206Z,99439.25
2024-05-09T09:19:44.475Z,99437.78
2024-05-09T09:22:50.708Z,99435.31
2024-05-09T09:25:59.546Z,99423.59
2024-05-09T09:29:05.515Z,99447.78
2024-05-09T09:32:13.063Z,99431.00
2024-05-09T09:35:15.636Z,99449.19
2024-05-09T09:38:23.963Z,99445.84
2024-05-09T09:41:30.850Z,99451.22
2024-05-09T09:44:34.240Z,99442.47
2024-05-09T09:47:41.509Z,99433.81
2024-05-09T09:50:45.961Z,99440.16
2024-05-09T09:53:53.446Z,99446.44
2024-05-09T09:56:57.055Z,99430.22
2024-05-09T10:00:00.368Z,99430.31
2024-05-09T10:03:03.245Z,99439.19
2024-05-09T10:06:07.513Z,99427.72
2024-05-09T10:09:16.512Z,99421.44
2024-05-09T10:12:21.644Z,99429.06
2024-05-09T10:15:26.714Z,99418.41
2024-05-09T10:18:37.107Z,99420.50
2024-05-09T10:21:47.401Z,99407.63
2024-05-09T10:24:54.283Z,99403.00
2024-05-09T10:27:56.985Z,99419.91
2024-05-09T10:31:04.038Z,99416.53
2024-05-09T10:34:06.825Z,99399.75
2024-05-09T10:37:10.700Z,99408.97
2024-05-09T10:40:26.585Z,99400.00
2024-05-09T10:43:34.575Z,99390.22
2024-05-09T10:46:37.425Z,99411.00
2024-05-09T10:49:40.301Z,99393.13
2024-05-09T10:52:42.929Z,99398.63
2024-05-09T10:55:58.392Z,99379.16
2024-05-09T10:59:04.221Z,99398.91
2024-05-09T11:02:08.108Z,99382.97
2024-05-09T11:05:11.225Z,99375.41
2024-05-09T11:08:14.180Z,99388.81
2024-05-09T11:11:19.695Z,99381.69
2024-05-09T11:14:22.359Z,99381.13
2024-05-09T11:17:25.359Z,99381.13
2024-05-09T11:20:35.571Z,99371.38
2024-05-09T11:23:38.826Z,99365.66
2024-05-09T11:26:44.073Z,99360.34
2024-05-09T11:29:47.578Z,99356.00
2024-05-09T11:32:50.212Z,99366.19
2024-05-09T11:35:55.020Z,99365.97
2024-05-09T11:39:00.429Z,99357.59
2024-05-09T11:42:06.372Z,99352.59
2024-05-09T11:45:09.281Z,99358.81
2024-05-09T11:48:12.027Z,99345.47
2024-05-09T11:51:14.769Z,99355.66
2024-05-09T11:54:17.522Z,99340.31
2024-05-09T11:57:24.553Z,99349.16
2024-05-09T12:00:34.112Z,99336.81
2024-05-09T12:03:40.029Z,99338.72
2024-05-09T12:06:42.779Z,99337.88
2024-05-09T12:09:45.514Z,99328.47
2024-05-09T12:12:50.803Z,99332.69
2024-05-09T12:15:54.469Z,99339.63
2024-05-09T12:18:57.185Z,99320.53
2024-05-09T12:22:00.056Z,99327.25
2024-05-09T12:25:04.944Z,99326.25
2024-05-09T12:28:10.580Z,99335.84
2024-05-09T12:31:13.308Z,99333.56
2024-05-09T12:34:16.412Z,99322.75
2024-05-09T12:37:19.493Z,99329.06
2024-05-09T12:40:30.754Z,99328.44
2024-05-09T12:43:40.149Z,99324.34
2024-05-09T12:46:42.815Z,99322.78
2024-05-09T12:49:45.529Z,99308.97
2024-05-09T12:52:48.069Z,99312.53
2024-05-09T12:55:56.849Z,99301.34
2024-05-09T12:59:05.366Z,99294.72
2024-05-09T13:02:09.764Z,99295.97
2024-05-09T13:05:14.361Z,99292.78
2024-05-09T13:08:17.213Z,99280.06
2024-05-09T13:11:19.856Z,99294.13
2024-05-09T13:14:25.079Z,99293.19
2024-05-09T13:17:27.830Z,99290.75
2024-05-09T13:20:33.870Z,99271.22
2024-05-09T13:23:38.148Z,99284.16
2024-05-09T13:26:40.826Z,99274.78
2024-05-09T13:29:46.101Z,99263.28
2024-05-09T13:32:49.153Z,99265.47
2024-05-09T13:35:51.855Z,99273.88
2024-05-09T13:38:56.656Z,99263.69
2024-05-09T13:41:59.183Z,99261.66
2024-05-09T13:45:06.922Z,99272.94
2024-05-09T13:48:12.278Z,99259.16
2024-05-09T13:51:14.997Z,99249.31
2024-05-09T13:54:22.345Z,99257.66
2024-05-09T13:57:25.454Z,99253.78
2024-05-09T14:00:42.402Z,99247.41
2024-05-09T14:03:49.921Z,99248.56
2024-05-09T14:06:53.238Z,99253.00
2024-05-09T14:09:55.901Z,99248.84
2024-05-09T14:12:58.579Z,99233.28
2024-05-09T14:16:04.068Z,99234.31
2024-05-09T14:19:06.768Z,99236.03
2024-05-09T14:22:09.539Z,99234.31
2024-05-09T14:25:14.982Z,99219.00
2024-05-09T14:28:18.571Z,99226.66
2024-05-09T14:31:23.793Z,99220.59
2024-05-09T14:34:27.274Z,99228.50
2024-05-09T14:37:30.060Z,99225.28
2024-05-09T14:43:39.291Z,99218.41
2024-05-09T14:46:44.604Z,99217.41
2024-05-09T14:49:47.150Z,99219.84
2024-05-09T14:52:49.908Z,99212.81
2024-05-09T14:55:52.391Z,99207.47
2024-05-09T14:58:57.126Z,99200.09
2024-05-09T15:02:02.528Z,99201.84
2024-05-09T15:05:07.170Z,99191.53
2024-05-09T15:08:09.820Z,99180.88
2024-05-09T15:11:12.448Z,99188.00
2024-05-09T15:14:15.985Z,99182.22
2024-05-09T15:17:21.248Z,99187.25
2024-05-09T15:20:31.454Z,99184.53
2024-05-09T15:23:37.822Z,99177.00
2024-05-09T15:26:40.379Z,99187.81
2024-05-09T15:29:43.219Z,99165.44
2024-05-09T15:32:48.435Z,99168.06
2024-05-09T15:35:51.759Z,99160.56
2024-05-09T15:38:55.697Z,99170.88
2024-05-09T15:41:58.362Z,99168.06
2024-05-09T15:45:01.051Z,99168.91
2024-05-09T15:48:07.255Z,99158.19
2024-05-09T15:51:09.995Z,99168.53
2024-05-09T15:54:12.606Z,99152.66
2024-05-09T15:57:15.362Z,99156.25
2024-05-09T16:00:25.108Z,99155.44
2024-05-09T16:03:39.268Z,99158.56
2024-05-09T16:06:41.916Z,99150.44
2024-05-09T16:09:44.534Z,99155.84
2024-05-09T16:12:47.109Z,99148.31
2024-05-09T16:15:52.071Z,99142.00
2024-05-09T16:18:57.345Z,99142.69
2024-05-09T16:22:00.419Z,99140.00
2024-05-09T16:25:03.131Z,99133.78
2024-05-09T16:28:09.884Z,99145.03
2024-05-09T16:31:13.452Z,99145.84
2024-05-09T16:34:18.892Z,99144.38
2024-05-09T16:37:21.479Z,99143.31
2024-05-09T16:40:33.077Z,99136.81
2024-05-09T16:43:39.852Z,99134.66
2024-05-09T16:46:43.466Z,99133.72
2024-05-09T16:49:48.957Z,99144.34
2024-05-09T16:52:51.447Z,99137.91
2024-05-09T16:55:54.246Z,99129.72
2024-05-09T16:58:56.819Z,99129.41
2024-05-09T17:01:59.559Z,99131.41
2024-05-09T17:05:06.458Z,99130.09
2024-05-09T17:08:09.439Z,99135.53
2024-05-09T17:11:13.334Z,99131.31
2024-05-09T17:14:15.900Z,99129.25
2024-05-09T17:17:19.157Z,99126.81
2024-05-09T17:20:31.799Z,99123.00
2024-05-09T17:23:40.199Z,99118.88
2024-05-09T17:26:42.674Z,99121.06
2024-05-09T17:29:47.984Z,99128.09
2024-05-09T17:32:50.493Z,99124.66
2024-05-09T17:35:55.606Z,99111.91
2024-05-09T17:38:58.218Z,99122.91
2024-05-09T17:42:06.506Z,99119.91
2024-05-09T17:45:11.688Z,99117.63
2024-05-09T17:48:14.432Z,99114.81
2024-05-09T17:51:20.697Z,99119.66
2024-05-09T17:54:23.300Z,99113.34
2024-05-09T17:57:26.258Z,99103.72
2024-05-09T18:00:37.020Z,99111.47
2024-05-09T18:03:43.867Z,99107.69
2024-05-09T18:06:48.996Z,99118.91
2024-05-09T18:09:51.592Z,99123.63
2024-05-09T18:12:54.143Z,99120.69
2024-05-09T18:15:56.769Z,99119.66
2024-05-09T18:19:00.109Z,99125.38
2024-05-09T18:22:05.951Z,99108.38
2024-05-09T18:25:08.529Z,99125.44
2024-05-09T18:28:11.276Z,99127.66
2024-05-09T18:31:15.775Z,99124.47
2024-05-09T18:34:18.472Z,99110.13
2024-05-09T18:37:24.331Z,99121.72
2024-05-09T18:40:33.684Z,99126.78
2024-05-09T18:43:44.917Z,99129.50
2024-05-09T18:46:48.341Z,99123.91
2024-05-09T18:49:51.075Z,99127.78
2024-05-09T18:52:59.582Z,99124.69
2024-05-09T18:56:02.110Z,99134.50
2024-05-09T18:59:04.655Z,99118.47
2024-05-09T19:02:07.472Z,99142.31
2024-05-09T19:05:10.229Z,99136.63
2024-05-09T19:08:15.853Z,99135.28
2024-05-09T19:11:18.419Z,99145.75
2024-05-09T19:14:20.904Z,99149.97
2024-05-09T19:17:23.435Z,99159.50
2024-05-09T19:20:31.958Z,99144.50
2024-05-09T19:23:46.856Z,99155.44
2024-05-09T19:26:53.262Z,99152.84
2024-05-09T19:29:57.642Z,99146.88
2024-05-09T19:33:00.461Z,99156.97
2024-05-09T19:36:03.178Z,99159.66
2024-05-09T19:39:08.224Z,99162.53
2024-05-09T19:42:10.627Z,99167.22
2024-05-09T19:45:13.293Z,99164.91
2024-05-09T19:48:16.045Z,99166.75
2024-05-09T19:51:18.469Z,99163.50
2024-05-09T19:54:23.446Z,99164.91
2024-05-09T19:57:25.903Z,99177.59
2024-05-09T20:00:34.739Z,99176.72
2024-05-09T20:03:38.616Z,99169.00
2024-05-09T20:06:41.859Z,99161.31
2024-05-09T20:09:46.853Z,99174.66
2024-05-09T20:12:49.425Z,99170.44
2024-05-09T20:15:51.987Z,99159.16
2024-05-09T20:18:54.538Z,99176.34
2024-05-09T20:21:59.288Z,99179.22
2024-05-09T20:25:04.919Z,99174.19
2024-05-09T20:28:08.008Z,99182.94
2024-05-09T20:31:10.601Z,99175.72
2024-05-09T20:34:13.079Z,99185.88
2024-05-09T20:37:15.667Z,99178.78
2024-05-09T20:40:28.691Z,99186.06
2024-05-09T20:43:35.208Z,99182.94
2024-05-09T20:46:37.555Z,99175.56
2024-05-09T20:49:40.179Z,99166.78
2024-05-09T20:52:42.642Z,99175.47
2024-05-09T20:55:47.862Z,99170.63
2024-05-09T20:58:50.336Z,99160.53
2024-05-09T21:01:52.783Z,99171.81
2024-05-09T21:04:55.473Z,99172.28
2024-05-09T21:07:58.423Z,99164.72
2024-05-09T21:11:03.432Z,99166.84
2024-05-09T21:14:06.023Z,99163.16
2024-05-09T21:17:08.640Z,99165.47
2024-05-09T21:20:17.073Z,99165.38
2024-05-09T21:23:22.794Z,99162.09
2024-05-09T21:26:29.578Z,99166.28
2024-05-09T21:29:32.051Z,99163.03
2024-05-09T21:32:34.543Z,99170.06
2024-05-09T21:35:37.170Z,99174.25
2024-05-09T21:38:40.770Z,99173.75
2024-05-09T21:41:45.867Z,99166.00
2024-05-09T21:44:48.338Z,99176.09
2024-05-09T21:47:50.924Z,99177.34
2024-05-09T21:50:53.445Z,99167.63
2024-05-09T21:53:58.346Z,99167.69
2024-05-09T21:57:06.522Z,99173.22
2024-05-09T22:00:27.916Z,99169.59
2024-05-09T22:03:37.141Z,99163.56
2024-05-09T22:06:39.708Z,99157.16
2024-05-09T22:09:45.494Z,99162.78
2024-05-09T22:12:50.659Z,99161.75
2024-05-09T22:15:53.114Z,99161.56
2024-05-09T22:18:55.711Z,99159.00
2024-05-09T22:21:58.314Z,99166.09
2024-05-09T22:25:01.303Z,99177.69
2024-05-09T22:28:07.248Z,99162.63
2024-05-09T22:31:09.808Z,99164.09
2024-05-09T22:34:12.461Z,99168.03
2024-05-09T22:37:14.899Z,99174.53
2024-05-09T22:40:24.449Z,99168.91
2024-05-09T22:43:38.260Z,99177.03
2024-05-09T22:46:40.619Z,99171.00
2024-05-09T22:49:43.003Z,99173.25
2024-05-09T22:52:45.430Z,99175.34
2024-05-09T22:55:47.849Z,99174.69
2024-05-09T22:58:52.916Z,99163.97
2024-05-09T23:01:55.485Z,99171.88
2024-05-09T23:04:58.121Z,99174.41
2024-05-09T23:08:01.142Z,99172.69
2024-05-09T23:11:05.801Z,99178.97
2024-05-09T23:14:11.123Z,99173.25
2024-05-09T23:17:13.908Z,99177.81
2024-05-09T23:20:22.091Z,99173.16
2024-05-09T23:23:32.372Z,99177.09
2024-05-09T23:26:34.884Z,99168.47
2024-05-09T23:29:39.901Z,99162.09
2024-05-09T23:32:42.329Z,99159.91
2024-05-09T23:35:45.042Z,99153.84
2024-05-09T23:38:47.518Z,99158.03
2024-05-09T23:41:49.883Z,99154.25
2024-05-09T23:44:55.039Z,99151.94
2024-05-09T23:47:58.759Z,99149.53
2024-05-09T23:51:01.260Z,99146.47
2024-05-09T23:54:03.680Z,99137.25
2024-05-09T23:57:06.280Z,99134.34
